createdAt,value
2022-09-09T00:01:42.846Z,93.31
2022-09-09T00:04:29.898Z,94.33
2022-09-09T00:07:05.956Z,95.74
2022-09-09T00:09:48.156Z,95.08
2022-09-09T00:12:36.686Z,95.03
2022-09-09T00:15:15.526Z,94.06
2022-09-09T00:18:13.652Z,93.12
2022-09-09T00:20:59.431Z,93.69
2022-09-09T00:23:30.165Z,94.64
2022-09-09T00:26:21.714Z,93.85
2022-09-09T00:29:21.501Z,95.33
2022-09-09T00:31:54.038Z,96.13
2022-09-09T00:34:29.541Z,94.45
2022-09-09T00:36:57.624Z,95.64
2022-09-09T00:39:42.475Z,94.96
2022-09-09T00:42:35.170Z,95.05
2022-09-09T00:45:36.810Z,96.04
2022-09-09T00:48:09.269Z,97.36
2022-09-09T00:51:00.492Z,96.67
2022-09-09T00:53:49.931Z,97.30
2022-09-09T00:56:23.817Z,97.32
2022-09-09T00:59:03.008Z,97.46
2022-09-09T01:01:30.995Z,97.71
2022-09-09T01:04:01.679Z,97.48
2022-09-09T01:06:50.632Z,97.67
2022-09-09T01:09:47.803Z,98.33
2022-09-09T01:12:19.641Z,100.00
2022-09-09T01:14:50.386Z,99.21
2022-09-09T01:17:20.843Z,99.41
2022-09-09T01:20:13.491Z,98.82
2022-09-09T01:22:49.616Z,99.08
2022-09-09T01:25:34.725Z,99.10
2022-09-09T01:28:04.425Z,99.66
2022-09-09T01:30:40.707Z,99.23
2022-09-09T01:33:12.197Z,100.00
2022-09-09T01:36:00.548Z,99.64
2022-09-09T01:38:28.606Z,100.00
2022-09-09T01:40:56.431Z,99.89
2022-09-09T01:43:28.936Z,99.81
2022-09-09T01:45:58.123Z,100.00
2022-09-09T01:48:30.619Z,100.00
2022-09-09T01:50:58.545Z,100.00
2022-09-09T01:53:26.344Z,100.00
2022-09-09T01:56:39.082Z,100.00
2022-09-09T01:59:11.876Z,100.00
2022-09-09T02:01:57.989Z,100.00
2022-09-09T02:04:38.447Z,100.00
2022-09-09T02:07:08.384Z,100.00
2022-09-09T02:09:36.172Z,100.00
2022-09-09T02:12:10.446Z,100.00
2022-09-09T02:14:40.380Z,100.00
2022-09-09T02:17:12.693Z,100.00
2022-09-09T02:19:55.718Z,100.00
2022-09-09T02:22:24.608Z,100.00
2022-09-09T02:24:57.137Z,100.00
2022-09-09T02:27:25.030Z,100.00
2022-09-09T02:29:52.784Z,100.00
2022-09-09T02:32:22.641Z,100.00
2022-09-09T02:35:03.677Z,100.00
2022-09-09T02:37:37.498Z,100.00
2022-09-09T02:40:06.984Z,100.00
2022-09-09T02:42:34.900Z,100.00
2022-09-09T02:45:07.628Z,100.00
2022-09-09T02:47:50.815Z,100.00
2022-09-09T02:50:30.519Z,100.00
2022-09-09T02:53:17.255Z,100.00
2022-09-09T02:56:10.722Z,100.00
2022-09-09T02:58:38.810Z,100.00
2022-09-09T03:01:06.783Z,100.00
2022-09-09T03:03:34.676Z,100.00
2022-09-09T03:06:02.562Z,100.00
2022-09-09T03:08:30.428Z,100.00
2022-09-09T03:11:00.392Z,100.00
2022-09-09T03:13:28.276Z,100.00
2022-09-09T03:15:56.109Z,100.00
2022-09-09T03:18:24.043Z,100.00
2022-09-09T03:20:51.770Z,100.00
2022-09-09T03:23:24.246Z,100.00
2022-09-09T03:25:52.265Z,100.00
2022-09-09T03:28:20.682Z,100.00
2022-09-09T03:30:48.472Z,100.00
2022-09-09T03:33:17.266Z,100.00
2022-09-09T03:35:50.871Z,100.00
2022-09-09T03:38:19.244Z,100.00
2022-09-09T03:40:59.868Z,100.00
2022-09-09T03:43:27.896Z,100.00
2022-09-09T03:45:58.993Z,100.00
2022-09-09T03:48:31.485Z,100.00
2022-09-09T03:51:02.861Z,100.00
2022-09-09T03:53:31.063Z,100.00
2022-09-09T03:56:03.470Z,100.00
2022-09-09T03:58:31.434Z,100.00
2022-09-09T04:01:00.781Z,99.53
2022-09-09T04:03:28.789Z,99.61
2022-09-09T04:05:57.441Z,98.53
2022-09-09T04:08:27.526Z,98.10
2022-09-09T04:10:55.835Z,97.59
2022-09-09T04:13:23.846Z,97.17
2022-09-09T04:15:58.002Z,96.79
2022-09-09T04:18:25.995Z,96.14
2022-09-09T04:20:54.504Z,95.61
2022-09-09T04:23:22.762Z,94.75
2022-09-09T04:25:51.730Z,94.63
2022-09-09T04:28:20.372Z,93.69
2022-09-09T04:30:52.904Z,93.38
2022-09-09T04:33:20.811Z,93.48
2022-09-09T04:35:50.017Z,93.87
2022-09-09T04:38:18.716Z,94.37
2022-09-09T04:40:49.115Z,94.90
2022-09-09T04:43:21.603Z,94.79
2022-09-09T04:45:50.626Z,94.98
2022-09-09T04:48:18.508Z,94.62
2022-09-09T04:50:46.371Z,95.05
2022-09-09T04:53:14.277Z,95.76
2022-09-09T04:55:42.128Z,95.74
2022-09-09T04:58:10.331Z,96.52
2022-09-09T05:00:38.367Z,97.14
2022-09-09T05:03:10.967Z,98.18
2022-09-09T05:05:38.905Z,99.36
2022-09-09T05:08:08.017Z,99.78
2022-09-09T05:10:40.469Z,100.00
2022-09-09T05:13:08.724Z,100.00
2022-09-09T05:15:37.700Z,100.00
2022-09-09T05:18:06.989Z,100.00
2022-09-09T05:20:43.027Z,100.00
2022-09-09T05:23:13.489Z,100.00
2022-09-09T05:26:06.304Z,100.00
2022-09-09T05:28:38.394Z,100.00
2022-09-09T05:31:07.816Z,100.00
2022-09-09T05:33:36.755Z,100.00
2022-09-09T05:36:22.645Z,100.00
2022-09-09T05:38:51.360Z,100.00
2022-09-09T05:41:19.490Z,100.00
2022-09-09T05:43:52.075Z,100.00
2022-09-09T05:46:21.926Z,100.00
2022-09-09T05:48:52.751Z,100.00
2022-09-09T05:51:26.541Z,100.00
2022-09-09T05:53:57.557Z,100.00
2022-09-09T05:56:34.618Z,100.00
2022-09-09T05:59:08.528Z,100.00
2022-09-09T06:01:46.382Z,100.00
2022-09-09T06:04:26.692Z,100.00
2022-09-09T06:06:57.447Z,100.00
2022-09-09T06:09:25.387Z,100.00
2022-09-09T06:12:07.261Z,100.00
2022-09-09T06:14:44.399Z,100.00
2022-09-09T06:17:15.691Z,100.00
2022-09-09T06:19:55.026Z,100.00
2022-09-09T06:22:30.699Z,100.00
2022-09-09T06:25:12.135Z,100.00
2022-09-09T06:27:44.772Z,100.00
2022-09-09T06:30:23.291Z,100.00
2022-09-09T06:33:03.369Z,100.00
2022-09-09T06:35:31.593Z,100.00
2022-09-09T06:38:00.940Z,100.00
2022-09-09T06:40:34.796Z,100.00
2022-09-09T06:43:03.312Z,100.00
2022-09-09T06:45:31.582Z,100.00
2022-09-09T06:48:26.234Z,100.00
2022-09-09T06:51:22.735Z,100.00
2022-09-09T06:54:03.581Z,100.00
2022-09-09T06:56:39.493Z,100.00
2022-09-09T06:59:13.573Z,100.00
2022-09-09T07:01:52.434Z,100.00
2022-09-09T07:04:24.200Z,100.00
2022-09-09T07:06:54.926Z,100.00
2022-09-09T07:09:27.766Z,100.00
2022-09-09T07:12:01.940Z,100.00
2022-09-09T07:14:36.399Z,100.00
2022-09-09T07:17:29.227Z,100.00
2022-09-09T07:19:57.856Z,100.00
2022-09-09T07:22:26.954Z,100.00
2022-09-09T07:25:04.533Z,100.00
2022-09-09T07:27:35.262Z,100.00
2022-09-09T07:30:08.733Z,100.00
2022-09-09T07:32:54.354Z,100.00
2022-09-09T07:35:35.772Z,100.00
2022-09-09T07:38:28.988Z,100.00
2022-09-09T07:41:18.545Z,100.00
2022-09-09T07:43:47.532Z,100.00
2022-09-09T07:49:11.417Z,100.00
2022-09-09T07:51:45.183Z,100.00
2022-09-09T07:54:16.513Z,100.00
2022-09-09T07:56:51.669Z,100.00
2022-09-09T07:59:27.037Z,100.00
2022-09-09T08:01:57.007Z,100.00
2022-09-09T08:04:31.885Z,100.00
2022-09-09T08:07:07.893Z,100.00
2022-09-09T08:09:39.398Z,100.00
2022-09-09T08:12:08.853Z,98.19
2022-09-09T08:14:43.319Z,96.80
2022-09-09T08:17:17.396Z,95.65
2022-09-09T08:19:50.057Z,93.79
2022-09-09T08:22:30.507Z,93.24
2022-09-09T08:25:00.562Z,93.59
2022-09-09T08:27:35.689Z,92.76
2022-09-09T08:30:08.979Z,90.38
2022-09-09T08:32:49.612Z,92.78
2022-09-09T08:35:26.542Z,84.96
2022-09-09T08:38:07.660Z,88.53
2022-09-09T08:40:52.159Z,87.83
2022-09-09T08:43:32.324Z,89.07
2022-09-09T08:46:26.553Z,88.75
2022-09-09T08:49:28.275Z,84.92
2022-09-09T08:51:59.830Z,82.04
2022-09-09T08:54:51.219Z,80.87
2022-09-09T08:57:45.921Z,80.02
2022-09-09T09:00:15.229Z,75.68
2022-09-09T09:03:23.788Z,77.11
2022-09-09T09:06:26.379Z,78.47
2022-09-09T09:09:22.775Z,78.17
2022-09-09T09:12:03.265Z,78.17
2022-09-09T09:14:32.948Z,77.58
2022-09-09T09:17:32.127Z,78.16
2022-09-09T09:20:04.724Z,76.66
2022-09-09T09:22:45.323Z,78.89
2022-09-09T09:25:26.266Z,77.59
2022-09-09T09:28:11.682Z,74.09
2022-09-09T09:31:08.257Z,76.12
2022-09-09T09:34:19.665Z,75.53
2022-09-09T09:36:56.316Z,75.00
2022-09-09T09:43:08.513Z,75.05
2022-09-09T09:45:46.766Z,76.14
2022-09-09T09:48:30.678Z,76.62
2022-09-09T09:51:12.950Z,76.86
2022-09-09T09:53:43.834Z,75.47
2022-09-09T09:56:13.130Z,77.16
2022-09-09T09:59:17.997Z,76.73
2022-09-09T10:02:34.838Z,74.15
2022-09-09T10:05:08.023Z,72.70
2022-09-09T10:07:51.313Z,73.72
2022-09-09T10:10:26.032Z,73.30
2022-09-09T10:12:58.088Z,71.86
2022-09-09T10:15:35.725Z,68.75
2022-09-09T10:18:25.638Z,67.61
2022-09-09T10:21:21.977Z,69.40
2022-09-09T10:24:15.124Z,67.15
2022-09-09T10:27:14.983Z,67.68
2022-09-09T10:29:57.973Z,68.96
2022-09-09T10:32:48.564Z,69.76
2022-09-09T10:35:58.445Z,68.44
2022-09-09T10:38:56.429Z,67.67
2022-09-09T10:41:37.138Z,68.25
2022-09-09T10:44:31.322Z,68.48
2022-09-09T10:47:19.460Z,70.41
2022-09-09T10:50:17.579Z,61.02
2022-09-09T10:53:00.518Z,64.17
2022-09-09T10:55:59.667Z,63.82
2022-09-09T10:58:35.938Z,63.69
2022-09-09T11:01:12.492Z,64.11
2022-09-09T11:03:45.287Z,63.32
2022-09-09T11:06:19.874Z,64.41
2022-09-09T11:08:51.695Z,62.23
2022-09-09T11:11:26.368Z,64.82
2022-09-09T11:13:54.587Z,63.13
2022-09-09T11:16:46.029Z,64.36
2022-09-09T11:19:23.634Z,64.84
2022-09-09T11:21:56.018Z,65.52
2022-09-09T11:24:27.232Z,65.33
2022-09-09T11:27:05.346Z,64.52
2022-09-09T11:29:56.037Z,64.22
2022-09-09T11:32:57.667Z,63.94
2022-09-09T11:35:50.331Z,63.83
2022-09-09T11:38:20.337Z,63.55
2022-09-09T11:40:52.852Z,60.27
2022-09-09T11:43:26.046Z,59.71
2022-09-09T11:46:00.346Z,53.46
2022-09-09T11:48:47.918Z,50.87
2022-09-09T11:51:28.868Z,53.94
2022-09-09T11:54:03.361Z,52.73
2022-09-09T11:56:48.485Z,55.61
2022-09-09T11:59:24.137Z,52.76
2022-09-09T12:02:17.035Z,54.34
2022-09-09T12:04:53.269Z,56.76
2022-09-09T12:07:29.085Z,54.05
2022-09-09T12:10:09.250Z,54.57
2022-09-09T12:12:44.169Z,53.46
2022-09-09T12:15:11.997Z,49.42
2022-09-09T12:17:54.730Z,50.59
2022-09-09T12:20:40.300Z,47.23
2022-09-09T12:23:16.414Z,47.59
2022-09-09T12:26:02.140Z,48.33
2022-09-09T12:28:46.837Z,47.88
2022-09-09T12:31:37.113Z,45.05
2022-09-09T12:34:14.050Z,44.46
2022-09-09T12:36:42.317Z,46.61
2022-09-09T12:39:19.938Z,46.23
2022-09-09T12:41:58.956Z,44.70
2022-09-09T12:44:27.759Z,46.14
2022-09-09T12:46:55.684Z,45.58
2022-09-09T12:49:36.650Z,46.75
2022-09-09T12:52:07.713Z,45.80
2022-09-09T12:54:36.956Z,44.96
2022-09-09T12:57:11.335Z,43.75
2022-09-09T12:59:44.421Z,42.06
2022-09-09T13:02:23.588Z,45.68
2022-09-09T13:04:56.074Z,42.01
2022-09-09T13:07:29.104Z,41.15
2022-09-09T13:10:01.551Z,43.08
2022-09-09T13:12:29.505Z,45.02
2022-09-09T13:15:02.321Z,41.50
2022-09-09T13:17:33.190Z,42.42
2022-09-09T13:20:01.084Z,42.39
2022-09-09T13:22:33.113Z,42.91
2022-09-09T13:25:04.541Z,44.22
2022-09-09T13:27:40.950Z,43.56
2022-09-09T13:30:55.173Z,42.50
2022-09-09T13:33:24.688Z,41.16
2022-09-09T13:35:59.777Z,41.83
2022-09-09T13:38:30.367Z,42.06
2022-09-09T13:41:12.433Z,43.45
2022-09-09T13:43:46.865Z,42.18
2022-09-09T13:46:46.410Z,42.52
2022-09-09T13:49:14.203Z,41.44
2022-09-09T13:51:48.874Z,42.67
2022-09-09T13:54:18.155Z,44.08
2022-09-09T13:56:52.228Z,44.27
2022-09-09T13:59:24.026Z,42.56
2022-09-09T14:01:56.485Z,42.84
2022-09-09T14:04:36.526Z,42.69
2022-09-09T14:07:09.985Z,42.86
2022-09-09T14:09:42.492Z,43.09
2022-09-09T14:12:27.682Z,43.88
2022-09-09T14:15:01.942Z,46.78
2022-09-09T14:17:32.103Z,46.29
2022-09-09T14:20:00.179Z,45.29
2022-09-09T14:22:28.131Z,46.17
2022-09-09T14:25:00.579Z,45.67
2022-09-09T14:27:33.228Z,45.79
2022-09-09T14:30:02.799Z,46.39
2022-09-09T14:32:35.388Z,45.67
2022-09-09T14:35:09.143Z,46.57
2022-09-09T14:37:37.984Z,46.28
2022-09-09T14:40:06.369Z,46.86
2022-09-09T14:42:39.235Z,46.71
2022-09-09T14:45:07.667Z,47.13
2022-09-09T14:47:35.637Z,48.78
2022-09-09T14:50:08.126Z,48.91
2022-09-09T14:52:36.101Z,50.50
2022-09-09T14:55:03.867Z,51.21
2022-09-09T14:57:33.144Z,51.88
2022-09-09T15:00:01.228Z,52.80
2022-09-09T15:02:32.118Z,53.25
2022-09-09T15:05:04.619Z,53.66
2022-09-09T15:07:33.954Z,53.23
2022-09-09T15:10:01.977Z,53.72
2022-09-09T15:12:30.489Z,55.07
2022-09-09T15:15:00.948Z,55.64
2022-09-09T15:17:29.145Z,57.31
2022-09-09T15:19:57.085Z,56.94
2022-09-09T15:22:26.257Z,56.68
2022-09-09T15:24:58.840Z,57.41
2022-09-09T15:27:26.660Z,57.99
2022-09-09T15:29:54.516Z,58.19
2022-09-09T15:32:28.453Z,56.92
2022-09-09T15:34:58.769Z,52.65
2022-09-09T15:37:26.770Z,52.94
2022-09-09T15:39:54.631Z,52.32
2022-09-09T15:42:27.117Z,53.06
2022-09-09T15:45:01.328Z,51.17
2022-09-09T15:47:33.887Z,51.56
2022-09-09T15:50:06.262Z,51.05
2022-09-09T15:52:34.064Z,51.01
2022-09-09T15:55:02.754Z,50.96
2022-09-09T15:57:42.795Z,50.87
2022-09-09T16:00:11.358Z,49.42
2022-09-09T16:02:39.447Z,49.17
2022-09-09T16:05:07.911Z,48.01
2022-09-09T16:07:37.099Z,50.02
2022-09-09T16:10:10.248Z,49.83
2022-09-09T16:12:38.232Z,49.32
2022-09-09T16:15:10.176Z,49.64
2022-09-09T16:17:39.945Z,50.47
2022-09-09T16:20:10.908Z,49.85
2022-09-09T16:22:44.270Z,49.66
2022-09-09T16:25:17.078Z,48.78
2022-09-09T16:27:49.602Z,49.88
2022-09-09T16:30:17.495Z,50.38
2022-09-09T16:32:45.558Z,50.38
2022-09-09T16:35:13.766Z,49.89
2022-09-09T16:37:46.322Z,50.66
2022-09-09T16:40:14.148Z,51.48
2022-09-09T16:42:41.953Z,51.27
2022-09-09T16:45:10.207Z,50.70
2022-09-09T16:47:40.012Z,51.38
2022-09-09T16:50:12.468Z,51.77
2022-09-09T16:52:40.493Z,51.63
2022-09-09T16:55:13.346Z,51.23
2022-09-09T16:57:41.476Z,51.42
2022-09-09T17:00:10.055Z,51.83
2022-09-09T17:02:37.923Z,52.26
2022-09-09T17:05:11.355Z,51.93
2022-09-09T17:07:39.190Z,52.40
2022-09-09T17:10:08.499Z,52.58
2022-09-09T17:12:42.274Z,53.69
2022-09-09T17:15:15.376Z,53.01
2022-09-09T17:17:47.202Z,54.21
2022-09-09T17:20:17.053Z,52.46
2022-09-09T17:22:45.144Z,53.31
2022-09-09T17:25:14.088Z,53.30
2022-09-09T17:27:42.430Z,53.12
2022-09-09T17:30:11.432Z,54.06
2022-09-09T17:32:43.414Z,54.53
2022-09-09T17:35:11.534Z,55.15
2022-09-09T17:37:39.322Z,56.06
2022-09-09T17:40:08.437Z,56.30
2022-09-09T17:42:37.319Z,57.51
2022-09-09T17:45:08.917Z,58.17
2022-09-09T17:47:41.464Z,58.23
2022-09-09T17:50:10.193Z,58.23
2022-09-09T17:52:42.595Z,58.61
2022-09-09T17:55:13.980Z,58.12
2022-09-09T17:57:41.900Z,58.57
2022-09-09T18:00:14.692Z,58.64
2022-09-09T18:02:43.621Z,59.00
2022-09-09T18:05:14.230Z,57.27
2022-09-09T18:07:42.909Z,64.70
2022-09-09T18:10:16.495Z,70.91
2022-09-09T18:12:45.392Z,74.53
2022-09-09T18:15:24.135Z,76.35
2022-09-09T18:17:56.370Z,77.11
2022-09-09T18:20:25.760Z,82.30
2022-09-09T18:22:58.489Z,80.46
2022-09-09T18:25:26.337Z,80.83
2022-09-09T18:28:08.726Z,79.44
2022-09-09T18:30:41.258Z,81.43
2022-09-09T18:33:24.003Z,85.10
2022-09-09T18:35:58.096Z,85.90
2022-09-09T18:38:30.882Z,85.94
2022-09-09T18:41:23.946Z,89.43
2022-09-09T18:43:59.212Z,91.44
2022-09-09T18:46:28.289Z,95.05
2022-09-09T18:49:00.755Z,93.88
2022-09-09T18:51:36.386Z,91.41
2022-09-09T18:54:11.168Z,95.78
2022-09-09T18:56:42.072Z,95.58
2022-09-09T18:59:14.607Z,95.34
2022-09-09T19:01:48.748Z,95.28
2022-09-09T19:04:22.898Z,94.87
2022-09-09T19:06:52.842Z,93.94
2022-09-09T19:09:20.758Z,97.60
2022-09-09T19:11:48.800Z,95.43
2022-09-09T19:14:18.841Z,93.92
2022-09-09T19:16:53.720Z,92.32
2022-09-09T19:19:36.659Z,92.65
2022-09-09T19:22:12.882Z,96.56
2022-09-09T19:24:41.775Z,93.39
2022-09-09T19:27:14.294Z,93.44
2022-09-09T19:29:46.823Z,97.35
2022-09-09T19:35:08.012Z,97.20
2022-09-09T19:37:40.858Z,96.07
2022-09-09T19:40:09.400Z,97.90
2022-09-09T19:42:41.861Z,94.93
2022-09-09T19:45:14.782Z,94.75
2022-09-09T19:47:53.171Z,93.04
2022-09-09T19:50:24.416Z,94.17
2022-09-09T19:52:53.483Z,95.17
2022-09-09T19:55:22.010Z,97.02
2022-09-09T19:57:59.277Z,96.66
2022-09-09T20:00:27.858Z,97.29
2022-09-09T20:03:17.700Z,95.90
2022-09-09T20:05:44.347Z,97.68
2022-09-09T20:08:16.872Z,97.99
2022-09-09T20:11:23.173Z,97.63
2022-09-09T20:13:51.066Z,98.36
2022-09-09T20:16:27.124Z,99.06
2022-09-09T20:18:57.949Z,96.61
2022-09-09T20:21:33.093Z,97.47
2022-09-09T20:24:04.877Z,97.26
2022-09-09T20:26:34.705Z,96.89
2022-09-09T20:29:03.271Z,98.06
2022-09-09T20:31:31.367Z,97.51
2022-09-09T20:34:03.753Z,96.95
2022-09-09T20:36:33.541Z,95.22
2022-09-09T20:39:14.967Z,97.53
2022-09-09T20:41:45.574Z,98.07
2022-09-09T20:44:18.035Z,99.16
2022-09-09T20:46:57.570Z,98.29
2022-09-09T20:49:26.855Z,97.82
2022-09-09T20:51:54.726Z,97.87
2022-09-09T20:54:26.986Z,97.56
2022-09-09T20:56:56.254Z,97.68
2022-09-09T20:59:28.579Z,94.96
2022-09-09T21:01:58.015Z,97.27
2022-09-09T21:04:26.340Z,97.74
2022-09-09T21:06:54.255Z,96.68
2022-09-09T21:09:24.290Z,96.60
2022-09-09T21:11:56.989Z,97.35
2022-09-09T21:14:25.014Z,96.42
2022-09-09T21:16:53.985Z,96.83
2022-09-09T21:19:21.898Z,96.49
2022-09-09T21:21:49.650Z,96.89
2022-09-09T21:24:17.762Z,97.00
2022-09-09T21:26:45.622Z,95.56
2022-09-09T21:29:14.486Z,97.35
2022-09-09T21:31:42.641Z,97.50
2022-09-09T21:34:10.957Z,93.89
2022-09-09T21:36:38.825Z,95.43
2022-09-09T21:39:06.574Z,97.02
2022-09-09T21:41:34.358Z,94.71
2022-09-09T21:44:02.239Z,96.55
2022-09-09T21:46:30.472Z,95.64
2022-09-09T21:48:59.330Z,95.94
2022-09-09T21:51:27.299Z,95.83
2022-09-09T21:53:58.259Z,95.95
2022-09-09T21:56:26.161Z,96.76
2022-09-09T21:58:58.120Z,96.76
2022-09-09T22:01:27.286Z,96.26
2022-09-09T22:03:55.033Z,96.63
2022-09-09T22:06:23.014Z,96.63
2022-09-09T22:08:51.100Z,97.18
2022-09-09T22:11:20.901Z,97.76
2022-09-09T22:13:49.590Z,97.97
2022-09-09T22:16:20.195Z,97.33
2022-09-09T22:18:55.051Z,97.61
2022-09-09T22:21:26.446Z,97.46
2022-09-09T22:23:58.318Z,97.47
2022-09-09T22:26:27.345Z,97.01
2022-09-09T22:28:59.746Z,98.12
2022-09-09T22:31:28.003Z,98.20
2022-09-09T22:33:55.993Z,99.02
2022-09-09T22:36:23.995Z,97.99
2022-09-09T22:38:51.953Z,98.51
2022-09-09T22:41:20.149Z,97.81
2022-09-09T22:43:48.181Z,97.59
2022-09-09T22:46:20.764Z,97.76
2022-09-09T22:48:49.288Z,97.58
2022-09-09T22:51:17.341Z,94.80
2022-09-09T22:53:46.183Z,96.81
2022-09-09T22:56:18.528Z,95.08
2022-09-09T22:58:47.278Z,96.21
2022-09-09T23:01:17.617Z,96.23
2022-09-09T23:03:48.738Z,97.11
2022-09-09T23:06:21.194Z,97.40
2022-09-09T23:08:53.286Z,97.80
2022-09-09T23:11:21.203Z,96.87
2022-09-09T23:13:54.188Z,96.19
2022-09-09T23:16:24.019Z,96.72
2022-09-09T23:18:56.529Z,96.42
2022-09-09T23:21:27.401Z,96.06
2022-09-09T23:23:55.470Z,95.90
2022-09-09T23:26:23.966Z,94.10
2022-09-09T23:28:53.133Z,95.08
2022-09-09T23:31:23.873Z,91.79
2022-09-09T23:33:51.859Z,90.86
2022-09-09T23:36:20.813Z,90.48
2022-09-09T23:38:53.204Z,87.83
2022-09-09T23:41:22.203Z,87.38
2022-09-09T23:43:54.670Z,86.44
2022-09-09T23:46:24.317Z,86.14
2022-09-09T23:48:52.962Z,83.39
2022-09-09T23:51:23.891Z,84.92
2022-09-09T23:53:54.063Z,83.46
2022-09-09T23:56:22.421Z,84.91
2022-09-09T23:58:50.582Z,84.35
